sensor_id;sensor_type;location;lat;lon;timestamp;pressure;altitude;pressure_sealevel;temperature;humidity
11936;BME280;6027;48.576;9.180;2022-12-18T00:01:21;97920.03;;;-11.07;97.27
11936;BME280;6027;48.576;9.180;2022-12-18T00:03:48;97912.88;;;-10.87;98.36
11936;BME280;6027;48.576;9.180;2022-12-18T00:06:14;97915.31;;;-10.80;99.18
11936;BME280;6027;48.576;9.180;2022-12-18T00:08:41;97918.44;;;-10.65;99.11
11936;BME280;6027;48.576;9.180;2022-12-18T00:11:10;97912.56;;;-10.70;97.36
11936;BME280;6027;48.576;9.180;2022-12-18T00:13:36;97926.41;;;-10.80;97.31
11936;BME280;6027;48.576;9.180;2022-12-18T00:16:10;97924.94;;;-10.96;97.42
11936;BME280;6027;48.576;9.180;2022-12-18T00:18:36;97922.38;;;-10.95;97.67
11936;BME280;6027;48.576;9.180;2022-12-18T00:21:04;97918.75;;;-10.82;97.94
11936;BME280;6027;48.576;9.180;2022-12-18T00:23:31;97904.00;;;-10.69;98.22
11936;BME280;6027;48.576;9.180;2022-12-18T00:26:05;97911.75;;;-10.73;98.43
11936;BME280;6027;48.576;9.180;2022-12-18T00:28:31;97916.84;;;-10.72;97.60
11936;BME280;6027;48.576;9.180;2022-12-18T00:31:08;97921.06;;;-10.69;98.43
11936;BME280;6027;48.576;9.180;2022-12-18T00:33:34;97915.03;;;-10.65;98.39
11936;BME280;6027;48.576;9.180;2022-12-18T00:36:04;97908.22;;;-10.65;98.08
11936;BME280;6027;48.576;9.180;2022-12-18T00:38:29;97920.16;;;-10.65;97.97
11936;BME280;6027;48.576;9.180;2022-12-18T00:40:55;97933.13;;;-10.76;97.64
11936;BME280;6027;48.576;9.180;2022-12-18T00:43:20;97931.66;;;-10.89;98.03
11936;BME280;6027;48.576;9.180;2022-12-18T00:45:45;97939.81;;;-11.17;97.53
11936;BME280;6027;48.576;9.180;2022-12-18T00:48:11;97927.38;;;-11.41;99.48
11936;BME280;6027;48.576;9.180;2022-12-18T00:50:36;97931.41;;;-11.26;100.00
11936;BME280;6027;48.576;9.180;2022-12-18T00:53:02;97925.31;;;-11.16;99.95
11936;BME280;6027;48.576;9.180;2022-12-18T00:55:27;97917.41;;;-11.04;100.00
11936;BME280;6027;48.576;9.180;2022-12-18T00:57:53;97919.81;;;-10.95;100.00
11936;BME280;6027;48.576;9.180;2022-12-18T01:00:18;97918.81;;;-10.86;100.00
11936;BME280;6027;48.576;9.180;2022-12-18T01:02:44;97923.91;;;-10.85;100.00
11936;BME280;6027;48.576;9.180;2022-12-18T01:05:11;97920.50;;;-10.85;100.00
11936;BME280;6027;48.576;9.180;2022-12-18T01:07:37;97928.22;;;-10.87;100.00
11936;BME280;6027;48.576;9.180;2022-12-18T01:10:04;97931.66;;;-10.89;99.79
11936;BME280;6027;48.576;9.180;2022-12-18T01:12:29;97937.03;;;-11.04;99.58
11936;BME280;6027;48.576;9.180;2022-12-18T01:14:55;97940.41;;;-11.02;99.39
11936;BME280;6027;48.576;9.180;2022-12-18T01:17:21;97923.13;;;-10.90;99.30
11936;BME280;6027;48.576;9.180;2022-12-18T01:19:46;97917.19;;;-10.90;98.71
11936;BME280;6027;48.576;9.180;2022-12-18T01:22:12;97924.03;;;-10.92;98.20
11936;BME280;6027;48.576;9.180;2022-12-18T01:24:37;97931.69;;;-11.44;95.19
11936;BME280;6027;48.576;9.180;2022-12-18T01:27:02;97930.34;;;-11.68;94.47
11936;BME280;6027;48.576;9.180;2022-12-18T01:29:28;97930.50;;;-11.76;94.62
11936;BME280;6027;48.576;9.180;2022-12-18T01:31:57;97938.81;;;-11.65;95.24
11936;BME280;6027;48.576;9.180;2022-12-18T01:34:23;97932.72;;;-11.55;95.67
11936;BME280;6027;48.576;9.180;2022-12-18T01:36:49;97935.19;;;-11.50;96.65
11936;BME280;6027;48.576;9.180;2022-12-18T01:39:17;97924.09;;;-11.49;96.99
11936;BME280;6027;48.576;9.180;2022-12-18T01:41:43;97921.44;;;-11.41;97.11
11936;BME280;6027;48.576;9.180;2022-12-18T01:45:08;97934.06;;;-11.32;96.97
11936;BME280;6027;48.576;9.180;2022-12-18T01:47:56;97942.53;;;-11.30;97.18
11936;BME280;6027;48.576;9.180;2022-12-18T01:53:07;97943.81;;;-11.57;97.07
11936;BME280;6027;48.576;9.180;2022-12-18T01:55:39;97937.75;;;-11.52;97.28
11936;BME280;6027;48.576;9.180;2022-12-18T01:58:05;97937.84;;;-11.56;97.90
11936;BME280;6027;48.576;9.180;2022-12-18T02:00:31;97931.03;;;-11.56;98.69
11936;BME280;6027;48.576;9.180;2022-12-18T02:02:57;97924.81;;;-11.39;98.42
11936;BME280;6027;48.576;9.180;2022-12-18T02:05:31;97923.22;;;-11.46;98.37
11936;BME280;6027;48.576;9.180;2022-12-18T02:08:05;97915.56;;;-11.49;99.60
11936;BME280;6027;48.576;9.180;2022-12-18T02:10:53;97920.84;;;-11.59;100.00
11936;BME280;6027;48.576;9.180;2022-12-18T02:18:53;97944.81;;;-11.69;100.00
11936;BME280;6027;48.576;9.180;2022-12-18T02:21:36;97931.69;;;-11.43;100.00
11936;BME280;6027;48.576;9.180;2022-12-18T02:26:46;97929.03;;;-11.37;100.00
11936;BME280;6027;48.576;9.180;2022-12-18T02:29:21;97934.22;;;-11.43;100.00
11936;BME280;6027;48.576;9.180;2022-12-18T02:31:52;97930.84;;;-11.43;100.00
11936;BME280;6027;48.576;9.180;2022-12-18T02:34:22;97934.22;;;-11.43;100.00
11936;BME280;6027;48.576;9.180;2022-12-18T02:36:49;97937.94;;;-11.65;100.00
11936;BME280;6027;48.576;9.180;2022-12-18T02:39:17;97939.94;;;-11.84;100.00
11936;BME280;6027;48.576;9.180;2022-12-18T02:41:43;97936.69;;;-11.95;100.00
11936;BME280;6027;48.576;9.180;2022-12-18T02:44:11;97937.63;;;-12.01;100.00
11936;BME280;6027;48.576;9.180;2022-12-18T02:46:42;97946.84;;;-11.91;100.00
11936;BME280;6027;48.576;9.180;2022-12-18T02:49:22;97946.75;;;-11.84;100.00
11936;BME280;6027;48.576;9.180;2022-12-18T02:57:40;97964.28;;;-11.60;100.00
11936;BME280;6027;48.576;9.180;2022-12-18T03:00:14;97969.28;;;-11.53;100.00
11936;BME280;6027;48.576;9.180;2022-12-18T03:07:39;97947.03;;;-11.44;100.00
11936;BME280;6027;48.576;9.180;2022-12-18T03:10:11;97942.56;;;-11.32;100.00
11936;BME280;6027;48.576;9.180;2022-12-18T03:12:45;97940.03;;;-11.33;100.00
11936;BME280;6027;48.576;9.180;2022-12-18T03:15:24;97936.81;;;-11.46;100.00
11936;BME280;6027;48.576;9.180;2022-12-18T03:17:56;97948.53;;;-11.33;100.00
11936;BME280;6027;48.576;9.180;2022-12-18T03:20:25;97944.13;;;-11.22;100.00
11936;BME280;6027;48.576;9.180;2022-12-18T03:22:57;97950.09;;;-11.23;100.00
11936;BME280;6027;48.576;9.180;2022-12-18T03:25:25;97956.88;;;-11.19;100.00
11936;BME280;6027;48.576;9.180;2022-12-18T03:27:56;97957.69;;;-11.17;100.00
11936;BME280;6027;48.576;9.180;2022-12-18T03:30:23;97951.66;;;-11.14;100.00
11936;BME280;6027;48.576;9.180;2022-12-18T03:33:00;97954.53;;;-11.34;100.00
11936;BME280;6027;48.576;9.180;2022-12-18T03:35:30;97960.34;;;-11.24;100.00
11936;BME280;6027;48.576;9.180;2022-12-18T03:37:58;97952.63;;;-11.20;100.00
11936;BME280;6027;48.576;9.180;2022-12-18T03:40:35;97960.94;;;-11.08;100.00
11936;BME280;6027;48.576;9.180;2022-12-18T03:43:10;97953.34;;;-11.13;100.00
11936;BME280;6027;48.576;9.180;2022-12-18T03:45:52;97959.31;;;-11.12;100.00
11936;BME280;6027;48.576;9.180;2022-12-18T03:48:59;97959.25;;;-11.09;100.00
11936;BME280;6027;48.576;9.180;2022-12-18T03:51:40;97959.22;;;-11.06;100.00
11936;BME280;6027;48.576;9.180;2022-12-18T03:54:08;97963.28;;;-10.95;100.00
11936;BME280;6027;48.576;9.180;2022-12-18T03:57:04;97964.94;;;-10.92;100.00
11936;BME280;6027;48.576;9.180;2022-12-18T03:59:33;97959.00;;;-10.94;100.00
11936;BME280;6027;48.576;9.180;2022-12-18T04:02:01;97962.41;;;-10.94;100.00
11936;BME280;6027;48.576;9.180;2022-12-18T04:04:28;97946.25;;;-10.96;100.00
11936;BME280;6027;48.576;9.180;2022-12-18T04:06:55;97953.78;;;-10.87;100.00
11936;BME280;6027;48.576;9.180;2022-12-18T04:09:22;97948.56;;;-10.79;100.00
11936;BME280;6027;48.576;9.180;2022-12-18T04:11:48;97941.56;;;-10.71;100.00
11936;BME280;6027;48.576;9.180;2022-12-18T04:14:13;97951.97;;;-10.78;100.00
11936;BME280;6027;48.576;9.180;2022-12-18T04:16:39;97966.34;;;-10.73;100.00
11936;BME280;6027;48.576;9.180;2022-12-18T04:19:04;97975.03;;;-10.83;100.00
11936;BME280;6027;48.576;9.180;2022-12-18T04:21:30;97971.47;;;-10.74;100.00
11936;BME280;6027;48.576;9.180;2022-12-18T04:23:55;97974.81;;;-10.71;100.00
11936;BME280;6027;48.576;9.180;2022-12-18T04:26:21;97964.66;;;-10.74;100.00
11936;BME280;6027;48.576;9.180;2022-12-18T04:28:46;97959.69;;;-10.82;100.00
11936;BME280;6027;48.576;9.180;2022-12-18T04:31:12;97954.88;;;-11.01;100.00
11936;BME280;6027;48.576;9.180;2022-12-18T04:33:37;97963.16;;;-11.41;98.42
11936;BME280;6027;48.576;9.180;2022-12-18T04:36:03;97967.50;;;-11.46;98.51
11936;BME280;6027;48.576;9.180;2022-12-18T04:38:28;97985.41;;;-11.49;98.60
11936;BME280;6027;48.576;9.180;2022-12-18T04:40:54;97990.44;;;-11.43;98.70
11936;BME280;6027;48.576;9.180;2022-12-18T04:43:19;97982.75;;;-11.41;99.88
11936;BME280;6027;48.576;9.180;2022-12-18T04:45:45;97980.84;;;-11.27;100.00
11936;BME280;6027;48.576;9.180;2022-12-18T04:48:11;97984.31;;;-11.31;99.02
11936;BME280;6027;48.576;9.180;2022-12-18T04:50:37;97976.97;;;-11.54;98.68
11936;BME280;6027;48.576;9.180;2022-12-18T04:53:02;97967.63;;;-11.55;98.61
11936;BME280;6027;48.576;9.180;2022-12-18T04:55:28;97950.50;;;-11.50;98.11
11936;BME280;6027;48.576;9.180;2022-12-18T04:57:53;97949.63;;;-11.49;98.49
11936;BME280;6027;48.576;9.180;2022-12-18T05:00:19;97952.09;;;-11.41;97.96
11936;BME280;6027;48.576;9.180;2022-12-18T05:02:45;97960.50;;;-11.35;98.44
11936;BME280;6027;48.576;9.180;2022-12-18T05:05:10;97960.66;;;-11.44;98.35
11936;BME280;6027;48.576;9.180;2022-12-18T05:07:36;97950.34;;;-11.38;98.46
11936;BME280;6027;48.576;9.180;2022-12-18T05:10:02;97944.38;;;-11.37;99.24
11936;BME280;6027;48.576;9.180;2022-12-18T05:12:28;97948.75;;;-11.45;98.76
11936;BME280;6027;48.576;9.180;2022-12-18T05:14:53;97942.16;;;-11.60;98.61
11936;BME280;6027;48.576;9.180;2022-12-18T05:17:19;97955.03;;;-11.69;99.40
11936;BME280;6027;48.576;9.180;2022-12-18T05:19:44;97960.94;;;-11.65;98.67
11936;BME280;6027;48.576;9.180;2022-12-18T05:22:10;97963.25;;;-12.10;96.43
11936;BME280;6027;48.576;9.180;2022-12-18T05:24:35;97962.16;;;-11.92;95.29
11936;BME280;6027;48.576;9.180;2022-12-18T05:27:01;97964.09;;;-12.09;94.07
11936;BME280;6027;48.576;9.180;2022-12-18T05:29:26;97969.16;;;-12.06;95.46
11936;BME280;6027;48.576;9.180;2022-12-18T05:31:52;97973.16;;;-11.84;95.27
11936;BME280;6027;48.576;9.180;2022-12-18T05:34:17;97975.00;;;-11.95;95.62
11936;BME280;6027;48.576;9.180;2022-12-18T05:36:42;97952.78;;;-11.90;96.24
11936;BME280;6027;48.576;9.180;2022-12-18T05:39:08;97942.34;;;-11.75;97.66
11936;BME280;6027;48.576;9.180;2022-12-18T05:41:34;97957.59;;;-11.70;98.38
11936;BME280;6027;48.576;9.180;2022-12-18T05:43:59;97969.47;;;-11.66;98.89
11936;BME280;6027;48.576;9.180;2022-12-18T05:46:25;97966.94;;;-11.69;99.34
11936;BME280;6027;48.576;9.180;2022-12-18T05:48:50;97971.19;;;-11.67;100.00
11936;BME280;6027;48.576;9.180;2022-12-18T05:51:19;97967.16;;;-11.81;100.00
11936;BME280;6027;48.576;9.180;2022-12-18T05:53:45;97978.13;;;-11.75;100.00
11936;BME280;6027;48.576;9.180;2022-12-18T05:56:15;97969.59;;;-11.75;100.00
11936;BME280;6027;48.576;9.180;2022-12-18T05:58:41;97969.59;;;-11.75;100.00
11936;BME280;6027;48.576;9.180;2022-12-18T06:01:19;97965.28;;;-11.72;100.00
11936;BME280;6027;48.576;9.180;2022-12-18T06:03:46;97961.03;;;-11.71;99.53
11936;BME280;6027;48.576;9.180;2022-12-18T06:06:22;97956.78;;;-11.72;98.57
11936;BME280;6027;48.576;9.180;2022-12-18T06:08:49;97954.47;;;-11.88;97.38
11936;BME280;6027;48.576;9.180;2022-12-18T06:11:20;97968.22;;;-11.99;95.95
11936;BME280;6027;48.576;9.180;2022-12-18T06:13:46;97955.56;;;-12.07;95.73
11936;BME280;6027;48.576;9.180;2022-12-18T06:16:12;97966.75;;;-12.17;94.49
11936;BME280;6027;48.576;9.180;2022-12-18T06:18:37;97962.94;;;-12.58;92.85
11936;BME280;6027;48.576;9.180;2022-12-18T06:21:03;97968.03;;;-12.59;92.40
11936;BME280;6027;48.576;9.180;2022-12-18T06:23:29;97976.53;;;-12.59;92.17
11936;BME280;6027;48.576;9.180;2022-12-18T06:25:54;97979.81;;;-12.47;92.93
11936;BME280;6027;48.576;9.180;2022-12-18T06:28:20;97980.59;;;-12.39;92.67
11936;BME280;6027;48.576;9.180;2022-12-18T06:30:47;97983.19;;;-12.45;94.91
11936;BME280;6027;48.576;9.180;2022-12-18T06:33:14;97983.22;;;-12.48;94.35
11936;BME280;6027;48.576;9.180;2022-12-18T06:35:40;97982.31;;;-12.43;94.71
11936;BME280;6027;48.576;9.180;2022-12-18T06:38:06;97985.75;;;-12.44;94.15
11936;BME280;6027;48.576;9.180;2022-12-18T06:40:31;97992.56;;;-12.46;94.85
11936;BME280;6027;48.576;9.180;2022-12-18T06:42:57;98000.34;;;-12.58;95.14
11936;BME280;6027;48.576;9.180;2022-12-18T06:45:22;97990.97;;;-12.56;94.40
11936;BME280;6027;48.576;9.180;2022-12-18T06:47:48;98005.50;;;-12.64;94.81
11936;BME280;6027;48.576;9.180;2022-12-18T06:50:13;98010.53;;;-12.58;94.47
11936;BME280;6027;48.576;9.180;2022-12-18T06:52:39;98016.34;;;-12.44;94.45
11936;BME280;6027;48.576;9.180;2022-12-18T06:55:10;98016.41;;;-12.50;94.36
11936;BME280;6027;48.576;9.180;2022-12-18T06:57:36;98016.34;;;-12.42;94.49
11936;BME280;6027;48.576;9.180;2022-12-18T07:00:03;98015.47;;;-12.40;94.76
11936;BME280;6027;48.576;9.180;2022-12-18T07:02:28;98030.75;;;-12.37;94.81
11936;BME280;6027;48.576;9.180;2022-12-18T07:04:54;98024.00;;;-12.42;94.60
11936;BME280;6027;48.576;9.180;2022-12-18T07:07:19;98016.31;;;-12.41;94.46
11936;BME280;6027;48.576;9.180;2022-12-18T07:09:45;98027.44;;;-12.49;95.21
11936;BME280;6027;48.576;9.180;2022-12-18T07:12:10;98024.09;;;-12.53;95.61
11936;BME280;6027;48.576;9.180;2022-12-18T07:14:35;98032.50;;;-12.43;95.26
11936;BME280;6027;48.576;9.180;2022-12-18T07:17:01;98032.78;;;-12.74;94.70
11936;BME280;6027;48.576;9.180;2022-12-18T07:19:26;98032.72;;;-12.69;96.03
11936;BME280;6027;48.576;9.180;2022-12-18T07:21:52;98036.19;;;-12.73;95.86
11936;BME280;6027;48.576;9.180;2022-12-18T07:24:17;98039.63;;;-12.79;96.19
11936;BME280;6027;48.576;9.180;2022-12-18T07:26:45;98044.63;;;-12.70;97.08
11936;BME280;6027;48.576;9.180;2022-12-18T07:29:11;98037.78;;;-12.65;96.94
11936;BME280;6027;48.576;9.180;2022-12-18T07:31:36;98040.34;;;-12.66;98.01
11936;BME280;6027;48.576;9.180;2022-12-18T07:34:01;98036.00;;;-12.52;98.67
11936;BME280;6027;48.576;9.180;2022-12-18T07:36:27;98038.41;;;-12.37;98.71
11936;BME280;6027;48.576;9.180;2022-12-18T07:38:52;98038.31;;;-12.31;98.37
11936;BME280;6027;48.576;9.180;2022-12-18T07:41:18;98037.56;;;-12.36;98.57
11936;BME280;6027;48.576;9.180;2022-12-18T07:43:44;98028.19;;;-12.34;97.99
11936;BME280;6027;48.576;9.180;2022-12-18T07:46:10;98034.19;;;-12.42;98.63
11936;BME280;6027;48.576;9.180;2022-12-18T07:48:36;98034.06;;;-12.30;98.35
11936;BME280;6027;48.576;9.180;2022-12-18T07:51:03;98038.47;;;-12.43;98.73
11936;BME280;6027;48.576;9.180;2022-12-18T07:53:30;98043.53;;;-12.38;99.71
11936;BME280;6027;48.576;9.180;2022-12-18T07:55:57;98029.94;;;-12.43;100.00
11936;BME280;6027;48.576;9.180;2022-12-18T07:58:22;98046.06;;;-12.37;100.00
11936;BME280;6027;48.576;9.180;2022-12-18T08:00:49;98041.00;;;-12.41;100.00
11936;BME280;6027;48.576;9.180;2022-12-18T08:03:15;98039.25;;;-12.36;100.00
11936;BME280;6027;48.576;9.180;2022-12-18T08:05:40;98043.44;;;-12.31;100.00
11936;BME280;6027;48.576;9.180;2022-12-18T08:08:06;98045.03;;;-12.20;100.00
11936;BME280;6027;48.576;9.180;2022-12-18T08:10:31;98050.16;;;-12.20;100.00
11936;BME280;6027;48.576;9.180;2022-12-18T08:12:57;98052.56;;;-12.08;100.00
11936;BME280;6027;48.576;9.180;2022-12-18T08:15:23;98042.34;;;-12.08;100.00
11936;BME280;6027;48.576;9.180;2022-12-18T08:20:23;98056.59;;;-11.86;100.00
11936;BME280;6027;48.576;9.180;2022-12-18T08:22:49;98054.84;;;-11.82;100.00
11936;BME280;6027;48.576;9.180;2022-12-18T08:25:15;98048.84;;;-11.78;100.00
11936;BME280;6027;48.576;9.180;2022-12-18T08:27:40;98048.75;;;-11.74;100.00
11936;BME280;6027;48.576;9.180;2022-12-18T08:30:06;98052.91;;;-11.65;100.00
11936;BME280;6027;48.576;9.180;2022-12-18T08:32:32;98053.69;;;-11.60;100.00
11936;BME280;6027;48.576;9.180;2022-12-18T08:34:58;98055.50;;;-11.68;100.00
11936;BME280;6027;48.576;9.180;2022-12-18T08:37:24;98052.88;;;-11.64;100.00
11936;BME280;6027;48.576;9.180;2022-12-18T08:39:50;98055.47;;;-11.67;100.00
11936;BME280;6027;48.576;9.180;2022-12-18T08:42:15;98059.72;;;-11.67;100.00
11936;BME280;6027;48.576;9.180;2022-12-18T08:44:59;98065.59;;;-11.58;100.00
11936;BME280;6027;48.576;9.180;2022-12-18T08:47:25;98051.22;;;-11.68;100.00
11936;BME280;6027;48.576;9.180;2022-12-18T08:49:51;98052.38;;;-11.24;100.00
11936;BME280;6027;48.576;9.180;2022-12-18T08:52:16;98048.81;;;-11.16;100.00
11936;BME280;6027;48.576;9.180;2022-12-18T08:54:42;98055.06;;;-10.76;100.00
11936;BME280;6027;48.576;9.180;2022-12-18T08:57:08;98054.91;;;-10.17;100.00
11936;BME280;6027;48.576;9.180;2022-12-18T08:59:33;98042.44;;;-9.89;100.00
11936;BME280;6027;48.576;9.180;2022-12-18T09:01:58;98042.16;;;-9.75;99.33
11936;BME280;6027;48.576;9.180;2022-12-18T09:04:24;98035.31;;;-9.33;97.65
11936;BME280;6027;48.576;9.180;2022-12-18T09:06:49;98034.03;;;-9.14;96.35
11936;BME280;6027;48.576;9.180;2022-12-18T09:09:14;98036.41;;;-9.43;94.83
11936;BME280;6027;48.576;9.180;2022-12-18T09:11:40;98027.88;;;-9.44;96.06
11936;BME280;6027;48.576;9.180;2022-12-18T09:14:06;98024.38;;;-9.02;95.94
11936;BME280;6027;48.576;9.180;2022-12-18T09:16:31;98032.72;;;-8.93;95.41
11936;BME280;6027;48.576;9.180;2022-12-18T09:18:57;98027.44;;;-9.24;95.66
11936;BME280;6027;48.576;9.180;2022-12-18T09:21:29;98029.69;;;-9.49;98.18
11936;BME280;6027;48.576;9.180;2022-12-18T09:23:56;98026.72;;;-9.30;98.98
11936;BME280;6027;48.576;9.180;2022-12-18T09:26:23;98022.94;;;-9.14;100.00
11936;BME280;6027;48.576;9.180;2022-12-18T09:28:49;98016.19;;;-8.81;100.00
11936;BME280;6027;48.576;9.180;2022-12-18T09:31:15;98020.66;;;-8.54;100.00
11936;BME280;6027;48.576;9.180;2022-12-18T09:33:41;98005.81;;;-8.43;100.00
11936;BME280;6027;48.576;9.180;2022-12-18T09:36:09;98010.00;;;-8.73;100.00
11936;BME280;6027;48.576;9.180;2022-12-18T09:38:35;98018.47;;;-8.69;100.00
11936;BME280;6027;48.576;9.180;2022-12-18T09:46:47;98018.03;;;-7.87;100.00
11936;BME280;6027;48.576;9.180;2022-12-18T09:49:18;98021.97;;;-8.07;100.00
11936;BME280;6027;48.576;9.180;2022-12-18T09:51:52;98022.13;;;-7.80;100.00
11936;BME280;6027;48.576;9.180;2022-12-18T09:54:26;98001.78;;;-7.57;100.00
11936;BME280;6027;48.576;9.180;2022-12-18T09:56:55;98005.38;;;-7.33;100.00
11936;BME280;6027;48.576;9.180;2022-12-18T09:59:28;97996.81;;;-7.34;100.00
11936;BME280;6027;48.576;9.180;2022-12-18T10:01:56;98000.66;;;-7.19;100.00
11936;BME280;6027;48.576;9.180;2022-12-18T10:04:35;98000.53;;;-7.14;100.00
11936;BME280;6027;48.576;9.180;2022-12-18T10:07:13;98005.78;;;-6.91;100.00
11936;BME280;6027;48.576;9.180;2022-12-18T10:09:59;97996.69;;;-7.01;100.00
11936;BME280;6027;48.576;9.180;2022-12-18T10:13:19;98001.91;;;-7.04;100.00
11936;BME280;6027;48.576;9.180;2022-12-18T10:15:50;98016.00;;;-7.16;100.00
11936;BME280;6027;48.576;9.180;2022-12-18T10:21:20;98006.69;;;-7.20;100.00
11936;BME280;6027;48.576;9.180;2022-12-18T10:24:08;98007.16;;;-7.07;100.00
11936;BME280;6027;48.576;9.180;2022-12-18T10:26:38;98019.31;;;-6.84;100.00
11936;BME280;6027;48.576;9.180;2022-12-18T10:29:15;98018.25;;;-7.05;100.00
11936;BME280;6027;48.576;9.180;2022-12-18T10:31:41;98001.16;;;-6.80;100.00
11936;BME280;6027;48.576;9.180;2022-12-18T10:34:11;97999.81;;;-6.65;100.00
11936;BME280;6027;48.576;9.180;2022-12-18T10:36:37;98007.31;;;-6.57;100.00
11936;BME280;6027;48.576;9.180;2022-12-18T10:39:22;98001.75;;;-6.45;100.00
11936;BME280;6027;48.576;9.180;2022-12-18T10:41:50;98006.44;;;-6.32;100.00
11936;BME280;6027;48.576;9.180;2022-12-18T10:44:26;98006.13;;;-6.22;100.00
11936;BME280;6027;48.576;9.180;2022-12-18T10:47:02;98007.53;;;-6.14;100.00
11936;BME280;6027;48.576;9.180;2022-12-18T10:49:31;98011.66;;;-6.08;100.00
11936;BME280;6027;48.576;9.180;2022-12-18T10:52:14;98009.88;;;-6.06;100.00
11936;BME280;6027;48.576;9.180;2022-12-18T10:54:47;98001.16;;;-6.02;100.00
11936;BME280;6027;48.576;9.180;2022-12-18T10:59:51;98008.59;;;-5.71;100.00
11936;BME280;6027;48.576;9.180;2022-12-18T11:02:37;97998.22;;;-5.70;100.00
11936;BME280;6027;48.576;9.180;2022-12-18T11:05:24;98000.53;;;-5.85;100.00
11936;BME280;6027;48.576;9.180;2022-12-18T11:07:58;97995.22;;;-5.81;100.00
11936;BME280;6027;48.576;9.180;2022-12-18T11:10:32;97989.66;;;-5.70;100.00
11936;BME280;6027;48.576;9.180;2022-12-18T11:15:42;97983.75;;;-5.27;100.00
11936;BME280;6027;48.576;9.180;2022-12-18T11:20:41;97974.75;;;-4.95;100.00
11936;BME280;6027;48.576;9.180;2022-12-18T11:23:12;97972.69;;;-4.85;100.00
11936;BME280;6027;48.576;9.180;2022-12-18T11:25:39;97976.81;;;-4.81;100.00
11936;BME280;6027;48.576;9.180;2022-12-18T11:31:27;97962.28;;;-4.84;100.00
11936;BME280;6027;48.576;9.180;2022-12-18T11:33:58;97963.06;;;-4.82;100.00
11936;BME280;6027;48.576;9.180;2022-12-18T11:36:29;97959.25;;;-4.73;100.00
11936;BME280;6027;48.576;9.180;2022-12-18T11:38:59;97952.63;;;-4.59;100.00
11936;BME280;6027;48.576;9.180;2022-12-18T11:50:20;97936.16;;;-4.36;100.00
11936;BME280;6027;48.576;9.180;2022-12-18T11:52:47;97947.16;;;-4.31;100.00
11936;BME280;6027;48.576;9.180;2022-12-18T11:58:07;97946.91;;;-4.04;100.00
11936;BME280;6027;48.576;9.180;2022-12-18T12:00:46;97948.41;;;-4.00;100.00
11936;BME280;6027;48.576;9.180;2022-12-18T12:03:44;97942.09;;;-3.93;100.00
11936;BME280;6027;48.576;9.180;2022-12-18T12:09:30;97927.56;;;-3.77;100.00
11936;BME280;6027;48.576;9.180;2022-12-18T12:25:40;97912.09;;;-3.78;100.00
11936;BME280;6027;48.576;9.180;2022-12-18T12:28:19;97910.25;;;-3.95;100.00
11936;BME280;6027;48.576;9.180;2022-12-18T12:38:56;97913.22;;;-3.84;100.00
11936;BME280;6027;48.576;9.180;2022-12-18T12:41:30;97909.88;;;-3.67;100.00
11936;BME280;6027;48.576;9.180;2022-12-18T12:44:25;97911.84;;;-3.72;100.00
11936;BME280;6027;48.576;9.180;2022-12-18T12:46:55;97919.16;;;-3.82;100.00
11936;BME280;6027;48.576;9.180;2022-12-18T12:49:26;97911.13;;;-3.76;100.00
11936;BME280;6027;48.576;9.180;2022-12-18T12:52:04;97915.06;;;-3.67;100.00
11936;BME280;6027;48.576;9.180;2022-12-18T12:54:32;97917.34;;;-3.61;100.00
11936;BME280;6027;48.576;9.180;2022-12-18T13:00:03;97930.66;;;-3.69;100.00
11936;BME280;6027;48.576;9.180;2022-12-18T13:02:44;97937.09;;;-3.59;100.00
11936;BME280;6027;48.576;9.180;2022-12-18T13:05:28;97941.22;;;-3.55;100.00
11936;BME280;6027;48.576;9.180;2022-12-18T13:08:07;97935.91;;;-3.52;100.00
11936;BME280;6027;48.576;9.180;2022-12-18T13:10:42;97927.44;;;-3.55;100.00
11936;BME280;6027;48.576;9.180;2022-12-18T13:13:10;97928.06;;;-3.50;100.00
11936;BME280;6027;48.576;9.180;2022-12-18T13:15:45;97938.63;;;-3.55;100.00
11936;BME280;6027;48.576;9.180;2022-12-18T13:18:18;97942.13;;;-3.56;100.00
11936;BME280;6027;48.576;9.180;2022-12-18T13:20:49;97944.91;;;-3.41;100.00
11936;BME280;6027;48.576;9.180;2022-12-18T13:26:00;97954.88;;;-3.32;100.00
11936;BME280;6027;48.576;9.180;2022-12-18T13:34:19;97939.28;;;-3.50;100.00
11936;BME280;6027;48.576;9.180;2022-12-18T13:36:45;97934.44;;;-3.38;100.00
11936;BME280;6027;48.576;9.180;2022-12-18T13:39:22;97932.19;;;-3.27;100.00
11936;BME280;6027;48.576;9.180;2022-12-18T13:44:34;97926.81;;;-3.41;100.00
11936;BME280;6027;48.576;9.180;2022-12-18T13:47:04;97921.41;;;-3.37;100.00
11936;BME280;6027;48.576;9.180;2022-12-18T13:49:37;97920.91;;;-3.45;100.00
11936;BME280;6027;48.576;9.180;2022-12-18T13:52:15;97918.84;;;-3.56;100.00
11936;BME280;6027;48.576;9.180;2022-12-18T13:54:45;97925.56;;;-3.33;100.00
11936;BME280;6027;48.576;9.180;2022-12-18T13:57:33;97932.47;;;-3.33;100.00
11936;BME280;6027;48.576;9.180;2022-12-18T14:00:24;97931.28;;;-3.45;100.00
11936;BME280;6027;48.576;9.180;2022-12-18T14:02:50;97929.53;;;-3.44;100.00
11936;BME280;6027;48.576;9.180;2022-12-18T14:05:28;97928.56;;;-3.42;100.00
11936;BME280;6027;48.576;9.180;2022-12-18T14:07:58;97923.75;;;-3.50;100.00
11936;BME280;6027;48.576;9.180;2022-12-18T14:10:25;97925.13;;;-3.42;100.00
11936;BME280;6027;48.576;9.180;2022-12-18T14:12:51;97926.94;;;-3.44;100.00
11936;BME280;6027;48.576;9.180;2022-12-18T14:17:59;97927.00;;;-3.46;100.00
11936;BME280;6027;48.576;9.180;2022-12-18T14:20:27;97924.72;;;-3.52;100.00
11936;BME280;6027;48.576;9.180;2022-12-18T14:22:54;97932.88;;;-3.61;100.00
11936;BME280;6027;48.576;9.180;2022-12-18T14:30:40;97930.38;;;-3.44;100.00
11936;BME280;6027;48.576;9.180;2022-12-18T14:33:09;97925.75;;;-3.56;100.00
11936;BME280;6027;48.576;9.180;2022-12-18T14:35:40;97930.34;;;-3.63;100.00
11936;BME280;6027;48.576;9.180;2022-12-18T14:41:14;97930.09;;;-3.57;100.00
11936;BME280;6027;48.576;9.180;2022-12-18T14:43:42;97927.09;;;-3.66;100.00
11936;BME280;6027;48.576;9.180;2022-12-18T14:46:41;97926.16;;;-3.65;100.00
11936;BME280;6027;48.576;9.180;2022-12-18T14:49:34;97933.56;;;-3.76;100.00
11936;BME280;6027;48.576;9.180;2022-12-18T14:52:13;97933.19;;;-3.67;100.00
11936;BME280;6027;48.576;9.180;2022-12-18T14:54:46;97928.75;;;-3.65;100.00
11936;BME280;6027;48.576;9.180;2022-12-18T14:57:25;97935.44;;;-3.80;100.00